Terminal Aerodrome Forecast
Issued by NWS

Home | Current Version | Previous Version | Text Only | Print | Product List | Glossary On
Versions: 1 2 3 4 5 6 7 8 9 10 11 12 13 14 15
000
FTUS46 KOTX 210520
TAFCOE
TAF
KCOE 210520Z 2106/2206 13005KT P6SM SCT120 BKN150
     FM211500 06008KT P6SM BKN100 OVC150
     FM220000 10008KT P6SM VCSH BKN070 OVC100
      AMD LTD TO CLD VIS AND WIND=

USA.gov is the U.S. government's official web portal to all federal, state and local government web resources and services.